Time;durP1;ratioP1;P1;durP2;ratioP2;P2;SDS_P1;SDS_P2;PMS_P1;PMS_P2;Temp;Humidity;BMP_temperature;BMP_pressure;BME280_temperature;BME280_humidity;BME280_pressure;Samples;Min_cycle;Max_cycle;Signal;HPM_P1;HPM_P2
2023/11/26 00:03:48;;;;;;;;;;;;;;;1.38;93.81;98995.33;682266;1260;138808;-81
2023/11/26 00:19:19;;;;;;;28.60;6.40;;;;;;;1.33;93.57;99011.55;682345;1259;125227;-81
2023/11/26 00:34:42;;;;;;;12.00;4.60;;;;;;;1.19;93.18;99016.80;682163;1258;139554;-80
2023/11/26 00:50:20;;;;;;;8.40;3.50;;;;;;;0.99;93.00;99027.27;682046;1261;138950;-80
2023/11/26 01:05:57;;;;;;;6.40;3.80;;;;;;;0.80;93.06;99018.59;681849;1259;138455;-80
2023/11/26 01:21:34;;;;;;;18.70;6.80;;;;;;;0.72;93.11;99035.79;682209;1270;138896;-81
2023/11/26 01:37:11;;;;;;;10.40;4.50;;;;;;;0.74;92.91;99046.52;682182;1262;139063;-80
2023/11/26 01:52:49;;;;;;;10.50;4.30;;;;;;;0.95;92.98;99060.98;681920;1263;139207;-80
2023/11/26 02:08:26;;;;;;;8.40;4.10;;;;;;;1.05;93.05;99076.30;681980;1259;139693;-80
2023/11/26 02:24:04;;;;;;;;;;;;;;;1.11;92.94;99085.91;682083;1264;139296;-82
2023/11/26 02:39:41;;;;;;;7.70;3.50;;;;;;;1.15;92.91;99113.02;682258;1259;125285;-81
2023/11/26 02:55:18;;;;;;;6.30;2.90;;;;;;;1.17;93.31;99130.98;681900;1264;138392;-80
2023/11/26 03:26:50;;;;;;;11.20;4.40;;;;;;;0.66;91.88;99147.08;682267;1272;126337;-81
2023/11/26 03:42:27;;;;;;;15.40;6.50;;;;;;;0.23;91.21;99164.77;682312;1259;139526;-80
2023/11/26 03:58:06;;;;;;;7.40;3.50;;;;;;;0.06;91.28;99174.38;682362;1259;139106;-81
2023/11/26 04:13:43;;;;;;;9.30;5.00;;;;;;;0.19;92.44;99196.50;682231;1259;139118;-80
2023/11/26 04:29:20;;;;;;;5.00;3.70;;;;;;;0.38;93.05;99206.98;682116;1260;139016;-81
2023/11/26 04:44:57;;;;;;;5.70;3.90;;;;;;;0.61;94.08;99217.76;682180;1262;139258;-81
2023/11/26 05:00:34;;;;;;;15.70;6.20;;;;;;;0.65;93.81;99228.70;682105;1261;140210;-80
2023/11/26 05:16:11;;;;;;;8.40;4.60;;;;;;;0.80;93.65;99247.54;674523;1271;10140836;-80
2023/11/26 05:31:49;;;;;;;19.30;9.90;;;;;;;0.98;94.67;99255.18;682391;1260;139223;-79
2023/11/26 05:47:25;;;;;;;185.80;67.80;;;;;;;1.13;95.13;99271.23;682057;1259;139152;-79
2023/11/26 06:03:02;;;;;;;;;;;;;;;1.21;95.02;99284.72;682190;1258;139685;-79
2023/11/26 06:18:39;;;;;;;111.80;46.70;;;;;;;1.50;94.79;99299.84;682283;1261;124901;-81
2023/11/26 06:34:18;;;;;;;47.30;13.30;;;;;;;1.52;93.94;99321.98;682192;1261;139944;-79
2023/11/26 06:49:57;;;;;;;76.00;19.70;;;;;;;1.39;92.97;99343.98;682449;1259;140515;-80
2023/11/26 07:05:35;;;;;;;;;;;;;;;1.26;92.85;99360.66;682428;1259;139850;-80
2023/11/26 07:21:12;;;;;;;155.10;55.20;;;;;;;1.29;92.09;99367.39;682253;1262;125478;-80
2023/11/26 07:36:50;;;;;;;;;;;;;;;0.99;91.93;99369.14;682418;1262;140774;-80
2023/11/26 07:52:27;;;;;;;51.80;16.60;;;;;;;0.94;91.43;99382.30;681929;1263;126508;-80
2023/11/26 08:08:04;;;;;;;37.50;18.90;;;;;;;0.94;91.00;99401.25;682243;1262;139847;-80
2023/11/26 08:23:50;;;;;;;126.10;48.80;;;;;;;1.17;90.28;99409.13;682208;1262;139402;-80
2023/11/26 08:39:27;;;;;;;17.70;8.10;;;;;;;1.41;89.90;99421.41;682540;1261;139861;-81
2023/11/26 08:55:04;;;;;;;51.10;19.70;;;;;;;2.44;90.21;99427.73;682364;1263;139485;-82
2023/11/26 09:10:41;;;;;;;16.90;7.60;;;;;;;4.67;88.60;99443.16;682119;1262;139238;-82
2023/11/26 09:26:13;;;;;;;11.00;4.60;;;;;;;7.32;82.25;99441.95;682160;1257;138505;-81
2023/11/26 09:41:50;;;;;;;24.50;10.70;;;;;;;8.32;73.10;99443.34;682199;1263;141132;-80
2023/11/26 09:57:28;;;;;;;18.90;11.40;;;;;;;8.65;68.50;99437.86;682135;1262;138675;-80
2023/11/26 10:13:08;;;;;;;29.90;15.30;;;;;;;8.37;64.73;99440.94;682219;1262;138054;-81
2023/11/26 10:28:46;;;;;;;27.00;13.30;;;;;;;8.38;63.70;99431.84;681909;1260;139255;-81
2023/11/26 10:44:23;;;;;;;24.60;11.40;;;;;;;8.28;63.56;99441.41;682037;1260;138845;-81
2023/11/26 11:00:06;;;;;;;14.90;8.60;;;;;;;7.77;64.05;99427.55;682304;1263;140051;-81
2023/11/26 11:15:45;;;;;;;15.20;5.50;;;;;;;7.84;63.70;99412.55;682271;1262;138238;-79
2023/11/26 11:31:23;;;;;;;18.20;9.30;;;;;;;5.74;64.96;99410.23;682128;1263;138565;-80
2023/11/26 11:47:10;;;;;;;17.20;7.50;;;;;;;5.15;66.45;99412.71;681995;1263;138650;-80
2023/11/26 12:02:47;;;;;;;15.10;7.50;;;;;;;4.42;67.63;99406.54;682289;1262;139044;-80
2023/11/26 12:18:24;;;;;;;11.20;6.20;;;;;;;4.07;68.66;99417.50;681873;1262;139397;-80
2023/11/26 12:34:01;;;;;;;17.70;8.40;;;;;;;3.76;69.87;99419.77;682300;1262;138512;-80
2023/11/26 12:49:39;;;;;;;17.90;6.50;;;;;;;3.32;71.59;99417.69;682162;1267;139236;-79
2023/11/26 13:05:37;;;;;;;33.70;11.50;;;;;;;3.41;72.01;99429.23;682153;1263;139044;-80
2023/11/26 13:21:14;;;;;;;37.70;10.40;;;;;;;3.33;72.55;99431.48;682283;1258;139211;-81
2023/11/26 13:36:53;;;;;;;30.00;12.20;;;;;;;3.08;73.45;99431.15;682226;1273;139363;-80
2023/11/26 13:52:30;;;;;;;33.50;17.50;;;;;;;3.01;74.62;99438.45;682103;1258;139386;-81
2023/11/26 14:08:09;;;;;;;36.20;19.50;;;;;;;2.89;75.35;99453.94;682164;1261;140674;-81
2023/11/26 14:23:46;;;;;;;;;;;;;;;2.81;76.17;99473.16;682207;1263;140140;-80
2023/11/26 14:39:23;;;;;;;97.60;29.60;;;;;;;2.79;76.55;99478.59;682478;1260;125349;-80
2023/11/26 14:55:01;;;;;;;;;;;;;;;2.94;76.85;99485.21;682442;1262;139338;-81
2023/11/26 15:10:38;;;;;;;;;;;;;;;2.89;77.80;99488.48;682549;1256;126740;-81
2023/11/26 15:26:18;;;;;;;34.40;14.20;;;;;;;2.77;78.86;99488.39;682575;1262;126017;-80
2023/11/26 15:41:59;;;;;;;60.60;21.30;;;;;;;2.91;78.75;99486.42;682405;1263;138853;-81
2023/11/26 15:57:37;;;;;;;27.10;12.90;;;;;;;2.95;79.26;99492.53;682596;1260;22273;-81
2023/11/26 16:13:14;;;;;;;22.20;10.10;;;;;;;3.00;79.49;99499.44;682442;1261;22187;-81
2023/11/26 16:28:51;;;;;;;36.90;15.50;;;;;;;3.10;79.12;99498.58;682402;1260;22361;-81
2023/11/26 16:44:31;;;;;;;72.10;23.50;;;;;;;3.08;79.46;99509.96;682102;1261;23084;-81
2023/11/26 17:00:14;;;;;;;71.80;30.30;;;;;;;2.17;84.28;99520.52;682198;1264;22443;-81
2023/11/26 17:15:52;;;;;;;95.20;45.00;;;;;;;2.09;85.45;99521.19;674339;1259;10138530;-81
2023/11/26 17:31:36;;;;;;;21.50;11.50;;;;;;;2.08;86.05;99520.09;682521;1263;22334;-81
2023/11/26 17:47:30;;;;;;;36.20;15.00;;;;;;;2.03;86.00;99526.96;682496;1257;139663;-81
2023/11/26 18:03:47;;;;;;;51.70;19.30;;;;;;;2.03;86.41;99534.37;682922;1261;22278;-81
2023/11/26 18:19:37;;;;;;;45.20;17.40;;;;;;;1.80;85.98;99525.63;682617;1259;139719;-82
2023/11/26 18:35:29;;;;;;;79.90;35.80;;;;;;;1.62;86.52;99523.00;682833;1259;22221;-82
2023/11/26 18:51:06;;;;;;;42.20;18.10;;;;;;;1.47;86.24;99531.88;682528;1259;139085;-82
2023/11/26 19:06:42;;;;;;;38.90;14.20;;;;;;;1.15;87.08;99532.10;682429;1262;22217;-81
2023/11/26 19:22:21;;;;;;;46.50;18.50;;;;;;;1.82;83.73;99540.38;682436;1263;23503;-81
2023/11/26 19:37:58;;;;;;;;;;;;;;;1.73;82.68;99544.89;682336;1262;139257;-82
2023/11/26 19:53:35;;;;;;;38.60;16.30;;;;;;;1.73;81.92;99543.52;682574;1259;125040;-80
2023/11/26 20:09:14;;;;;;;;;;;;;;;1.78;80.92;99535.44;682361;1259;138965;-81
2023/11/26 20:24:53;;;;;;;52.80;21.70;;;;;;;1.87;80.95;99524.73;682051;1263;126352;-81
2023/11/26 20:40:30;;;;;;;108.20;37.10;;;;;;;1.93;81.63;99531.70;682135;1259;139116;-80
2023/11/26 20:56:01;;;;;;;42.50;20.60;;;;;;;1.92;81.73;99528.01;681847;1263;139466;-81
2023/11/26 21:11:38;;;;;;;22.10;9.20;;;;;;;1.88;81.58;99526.48;682091;1263;139722;-81
2023/11/26 21:27:15;;;;;;;30.70;13.30;;;;;;;1.96;81.47;99527.89;682336;1259;139094;-81
2023/11/26 21:42:52;;;;;;;31.20;12.70;;;;;;;1.92;81.49;99524.90;682591;1257;139611;-81
2023/11/26 21:58:29;;;;;;;32.40;14.00;;;;;;;1.86;81.91;99527.52;682524;1260;139415;-80
2023/11/26 22:14:06;;;;;;;;;;;;;;;1.80;81.71;99535.63;682259;1260;139747;-80
2023/11/26 22:29:43;;;;;;;29.80;12.30;;;;;;;1.78;82.32;99546.83;682492;1258;22154;-80
2023/11/26 22:45:20;;;;;;;25.20;12.30;;;;;;;1.56;83.45;99533.17;682467;1263;22361;-80
2023/11/26 23:00:57;;;;;;;26.30;11.60;;;;;;;1.47;84.60;99523.08;682677;1262;23247;-80
2023/11/26 23:16:34;;;;;;;26.60;12.20;;;;;;;1.41;84.86;99523.91;682595;1260;22418;-81
2023/11/26 23:32:14;;;;;;;19.30;10.00;;;;;;;1.83;83.75;99526.17;682718;1257;22404;-81
2023/11/26 23:48:00;;;;;;;28.40;13.20;;;;;;;2.00;83.70;99522.99;682616;1262;23004;-81
